»·PEaware :: N360BG KBOI-KSFO

N360BG :: KBOI-KSFO

FLIGHT INFORMATION

Flight Status: Arrived
Operator: Privately registered:
United States
More flights under this callsign
Pilot: Brandon G. (13)
Aircraft: BOEING 757-200
(B752)
More flights by this aircraft type
Origin: KBOI Boise Air Terminal/Gowen
United States
Destination: KSFO San Francisco Intl
United States
More flights between these airports :: More routes between these airports
Route: +BOI3 HYVAL REO HARTT LEGGS BDEGA2
File this flight plan on PilotEdge
Remarks:
Altitude:
(Current/Filed)
40,000ft
Speed:
(Current/Filed)
425kts
Departed: 08-Nov-17 06:32 PM
Arrived: 08-Nov-17 08:05 PM
Distance/Time
Traveled:
453nm/1:33
Distance/Time
To Go:
Arrived

Flight Plot

Page will automatically refresh every two minutes.

Flight plan parsing failed; only flown route is shown


Map Options




Map Legend


Flown Route
Filed Route
Departure Airport
Arrival Airport
Navaid (VOR, NDB)
Fix

Horizontal Profiles

Position Reports

Time Latitude Longitude Heading Altitude Ground
Speed
08-Nov-17 18:14 43.569698 -116.228479 2 2846ft 0kts
08-Nov-17 18:15 43.569698 -116.228479 2 2846ft 0kts
08-Nov-17 18:16 43.569698 -116.228479 2 2846ft 0kts
08-Nov-17 18:17 43.569698 -116.228479 2 2846ft 0kts
08-Nov-17 18:18 43.569698 -116.228479 2 2846ft 0kts
08-Nov-17 18:19 43.569698 -116.228479 2 2846ft 0kts
08-Nov-17 18:20 43.569698 -116.228479 2 2846ft 0kts
08-Nov-17 18:21 43.569698 -116.228479 2 2846ft 0kts
08-Nov-17 18:22 43.569698 -116.228479 2 2846ft 0kts
08-Nov-17 18:23 43.569698 -116.228479 2 2846ft 0kts
08-Nov-17 18:24 43.569698 -116.228479 2 2846ft 0kts
08-Nov-17 18:25 43.569698 -116.228479 2 2846ft 0kts
08-Nov-17 18:26 43.569698 -116.228479 2 2846ft 0kts
08-Nov-17 18:27 43.569698 -116.228479 2 2846ft 0kts
08-Nov-17 18:28 43.569698 -116.228479 2 2846ft 0kts
08-Nov-17 18:29 43.569698 -116.228479 2 2846ft 0kts
08-Nov-17 18:30 43.569698 -116.228479 2 2846ft 0kts
08-Nov-17 18:31 43.569698 -116.228479 2 2846ft 0kts
08-Nov-17 18:32 43.569965 -116.227819 93 2846ft 6kts
08-Nov-17 18:33 43.568838 -116.229247 293 2845ft 12kts
08-Nov-17 18:34 43.570760 -116.234959 294 2835ft 13kts
08-Nov-17 18:35 43.570850 -116.235446 266 2834ft 0kts
08-Nov-17 18:36 43.569909 -116.235785 123 2835ft 9kts
08-Nov-17 18:37 43.558033 -116.199356 113 4029ft 180kts
08-Nov-17 18:38 43.538570 -116.129726 117 7234ft 230kts
08-Nov-17 18:39 43.494106 -116.062114 183 10469ft 268kts
08-Nov-17 18:40 43.441139 -116.137375 259 12999ft 344kts
08-Nov-17 18:41 43.399673 -116.261194 240 16021ft 369kts
08-Nov-17 18:42 43.349927 -116.384925 241 19164ft 377kts
08-Nov-17 18:43 43.300054 -116.510300 240 22748ft 384kts
08-Nov-17 18:44 43.248290 -116.640022 240 25577ft 397kts
08-Nov-17 18:45 43.195416 -116.772006 239 27911ft 411kts
08-Nov-17 18:46 43.139945 -116.909626 238 30112ft 422kts
08-Nov-17 18:47 43.071308 -117.036133 232 32862ft 412kts
08-Nov-17 18:48 43.002123 -117.157343 232 35331ft 404kts
08-Nov-17 18:49 42.933801 -117.275859 232 37453ft 397kts
08-Nov-17 18:50 42.866212 -117.392410 232 39158ft 397kts
08-Nov-17 18:51 42.797717 -117.510043 232 39995ft 399kts
08-Nov-17 18:52 42.728985 -117.627647 232 40003ft 396kts
08-Nov-17 18:53 42.661118 -117.743290 231 40013ft 396kts
08-Nov-17 18:54 42.592537 -117.859184 228 40012ft 395kts
08-Nov-17 18:55 42.513290 -117.962123 224 40009ft 395kts
08-Nov-17 18:56 42.433286 -118.063858 224 40008ft 395kts
08-Nov-17 18:57 42.353106 -118.165292 224 40006ft 395kts
08-Nov-17 18:58 42.273183 -118.266011 224 40005ft 393kts
08-Nov-17 18:59 42.193046 -118.366610 224 40002ft 394kts
08-Nov-17 19:00 42.112993 -118.466748 224 39999ft 394kts
08-Nov-17 19:01 42.032967 -118.566490 224 39997ft 394kts
08-Nov-17 19:02 41.955127 -118.664255 224 40004ft 394kts
08-Nov-17 19:03 41.876774 -118.761988 224 40020ft 393kts
08-Nov-17 19:04 41.796963 -118.860575 223 40015ft 392kts
08-Nov-17 19:05 41.716989 -118.958851 224 40032ft 395kts
08-Nov-17 19:06 41.636795 -119.057091 223 39925ft 396kts
08-Nov-17 19:07 41.555860 -119.155837 223 39925ft 397kts
08-Nov-17 19:08 41.474598 -119.254634 223 39923ft 397kts
08-Nov-17 19:09 41.392846 -119.353681 223 39923ft 398kts
08-Nov-17 19:10 41.311359 -119.452052 223 39929ft 398kts
08-Nov-17 19:11 41.229006 -119.549620 223 39927ft 395kts
08-Nov-17 19:12 41.147982 -119.646342 224 39926ft 396kts
08-Nov-17 19:13 41.068138 -119.741641 223 39934ft 396kts
08-Nov-17 19:14 40.986795 -119.838472 223 39932ft 395kts
08-Nov-17 19:15 40.907398 -119.932678 223 39949ft 395kts
08-Nov-17 19:16 40.827943 -120.022311 214 39957ft 398kts
08-Nov-17 19:17 40.731410 -120.092170 213 39957ft 397kts
08-Nov-17 19:18 40.635480 -120.162086 213 39954ft 397kts
08-Nov-17 19:19 40.539873 -120.231741 213 39952ft 397kts
08-Nov-17 19:20 40.443313 -120.299622 212 39947ft 398kts
08-Nov-17 19:21 40.347293 -120.368588 213 39948ft 398kts
08-Nov-17 19:22 40.250954 -120.438029 213 39945ft 398kts
08-Nov-17 19:23 40.154588 -120.507346 213 39944ft 402kts
08-Nov-17 19:24 40.057431 -120.577030 213 39943ft 402kts
08-Nov-17 19:25 39.960617 -120.646242 213 39939ft 402kts
08-Nov-17 19:26 39.871473 -120.710115 212 39947ft 403kts
08-Nov-17 19:27 39.790275 -120.767536 213 40065ft 403kts
08-Nov-17 19:28 39.678728 -120.850869 215 40066ft 401kts
08-Nov-17 19:29 39.582846 -120.920920 214 40065ft 402kts
08-Nov-17 19:30 39.501661 -120.978495 213 40003ft 402kts
08-Nov-17 19:31 39.404815 -121.046565 213 39999ft 402kts
08-Nov-17 19:32 39.315125 -121.126101 232 40002ft 392kts
08-Nov-17 19:33 39.246006 -121.232764 232 39993ft 391kts
08-Nov-17 19:34 39.177976 -121.336961 233 39937ft 381kts
08-Nov-17 19:35 39.110065 -121.440354 233 39934ft 382kts
08-Nov-17 19:36 39.043232 -121.542354 233 39949ft 382kts
08-Nov-17 19:37 38.975001 -121.645855 233 39947ft 382kts
08-Nov-17 19:38 38.908208 -121.746907 232 39952ft 382kts
08-Nov-17 19:39 38.851200 -121.832865 232 38638ft 371kts
08-Nov-17 19:40 38.786002 -121.930906 232 36691ft 361kts
08-Nov-17 19:41 38.720771 -122.027311 233 34677ft 368kts
08-Nov-17 19:42 38.654400 -122.126332 232 32640ft 373kts
08-Nov-17 19:43 38.587421 -122.226156 232 30679ft 378kts
08-Nov-17 19:44 38.520401 -122.326356 232 28472ft 368kts
08-Nov-17 19:45 38.455407 -122.423071 231 26743ft 349kts
08-Nov-17 19:46 38.394617 -122.512558 231 24988ft 324kts
08-Nov-17 19:47 38.337961 -122.597571 230 23407ft 317kts
08-Nov-17 19:48 38.281644 -122.681015 230 21867ft 312kts
08-Nov-17 19:49 38.218734 -122.753617 203 20295ft 322kts
08-Nov-17 19:50 38.127333 -122.739316 176 18485ft 339kts
08-Nov-17 19:51 38.037699 -122.712886 175 16740ft 335kts
08-Nov-17 19:52 37.948247 -122.686734 174 15044ft 332kts
08-Nov-17 19:53 37.867150 -122.639586 146 13370ft 346kts
08-Nov-17 19:54 37.795372 -122.563381 146 11671ft 339kts
08-Nov-17 19:55 37.727421 -122.491348 146 11030ft 300kts
08-Nov-17 19:56 37.666509 -122.426667 146 10576ft 280kts
08-Nov-17 19:57 37.607821 -122.366704 156 9416ft 272kts
08-Nov-17 19:58 37.545293 -122.326846 159 8390ft 264kts
08-Nov-17 19:59 37.481173 -122.286080 158 7323ft 258kts
08-Nov-17 20:00 37.444182 -122.210153 113 6285ft 271kts
08-Nov-17 20:01 37.420674 -122.122168 113 5290ft 264kts
08-Nov-17 20:02 37.446349 -122.046996 12 4317ft 272kts
08-Nov-17 20:03 37.498165 -122.088571 296 4112ft 217kts
08-Nov-17 20:04 37.526725 -122.151856 293 3642ft 209kts
08-Nov-17 20:05 37.552244 -122.211395 293 2718ft 180kts
08-Nov-17 20:06 37.574934 -122.265150 293 1678ft 159kts
08-Nov-17 20:07 37.592697 -122.307479 293 918ft 137kts
08-Nov-17 20:08 37.610783 -122.350586 294 172ft 136kts
08-Nov-17 20:09 37.622296 -122.378065 297 29ft 41kts
08-Nov-17 20:10 37.626402 -122.384228 308 22ft 18kts
08-Nov-17 20:11 37.627533 -122.384219 326 20ft 0kts
08-Nov-17 20:12 37.627533 -122.384219 326 20ft 0kts
08-Nov-17 20:13 37.627533 -122.384219 326 20ft 0kts
08-Nov-17 20:14 37.627533 -122.384219 326 20ft 0kts
08-Nov-17 20:15 37.627533 -122.384219 326 20ft 0kts
08-Nov-17 20:16 37.627533 -122.384219 326 20ft 0kts
08-Nov-17 20:17 37.627533 -122.384219 326 20ft 0kts
08-Nov-17 20:18 37.627533 -122.384219 326 20ft 0kts
08-Nov-17 20:19 37.627533 -122.384219 326 20ft 0kts
08-Nov-17 20:20 37.627533 -122.384219 326 20ft 0kts
08-Nov-17 20:21 37.627533 -122.384219 326 20ft 0kts
08-Nov-17 20:22 37.627533 -122.384219 326 20ft 0kts
08-Nov-17 20:23 37.627533 -122.384219 326 20ft 0kts
08-Nov-17 20:24 37.627533 -122.384219 326 20ft 0kts

Navigation Log

Ident Type
Flight plan parsing failed, navigation log unavailable